sensor_id;sensor_type;location;lat;lon;timestamp;P1;durP1;ratioP1;P2;durP2;ratioP2
23400;SDS011;11873;49.300;8.920;2024-01-30T00:02:42;9.33;;;7.93;;
23400;SDS011;11873;49.300;8.920;2024-01-30T00:07:43;10.17;;;9.03;;
23400;SDS011;11873;49.300;8.920;2024-01-30T00:12:43;9.93;;;8.47;;
23400;SDS011;11873;49.300;8.920;2024-01-30T00:17:43;12.87;;;9.33;;
23400;SDS011;11873;49.300;8.920;2024-01-30T00:22:43;12.03;;;9.00;;
23400;SDS011;11873;49.300;8.920;2024-01-30T00:27:43;12.87;;;9.23;;
23400;SDS011;11873;49.300;8.920;2024-01-30T00:32:44;13.13;;;8.77;;
23400;SDS011;11873;49.300;8.920;2024-01-30T00:37:44;12.40;;;9.07;;
23400;SDS011;11873;49.300;8.920;2024-01-30T00:42:44;9.47;;;8.40;;
23400;SDS011;11873;49.300;8.920;2024-01-30T00:47:44;11.60;;;8.53;;
23400;SDS011;11873;49.300;8.920;2024-01-30T00:52:45;10.80;;;8.47;;
23400;SDS011;11873;49.300;8.920;2024-01-30T00:57:45;10.70;;;9.00;;
23400;SDS011;11873;49.300;8.920;2024-01-30T01:02:45;10.63;;;8.33;;
23400;SDS011;11873;49.300;8.920;2024-01-30T01:07:45;10.23;;;8.43;;
23400;SDS011;11873;49.300;8.920;2024-01-30T01:12:45;10.30;;;8.87;;
23400;SDS011;11873;49.300;8.920;2024-01-30T01:17:46;9.33;;;8.43;;
23400;SDS011;11873;49.300;8.920;2024-01-30T01:22:46;8.93;;;7.80;;
23400;SDS011;11873;49.300;8.920;2024-01-30T01:27:46;10.20;;;7.87;;
23400;SDS011;11873;49.300;8.920;2024-01-30T01:32:46;10.07;;;8.23;;
23400;SDS011;11873;49.300;8.920;2024-01-30T01:37:46;8.67;;;7.83;;
23400;SDS011;11873;49.300;8.920;2024-01-30T01:42:47;9.93;;;8.23;;
23400;SDS011;11873;49.300;8.920;2024-01-30T01:47:48;10.13;;;7.53;;
23400;SDS011;11873;49.300;8.920;2024-01-30T01:52:50;9.70;;;8.37;;
23400;SDS011;11873;49.300;8.920;2024-01-30T01:57:50;8.77;;;7.63;;
23400;SDS011;11873;49.300;8.920;2024-01-30T02:02:57;8.87;;;7.97;;
23400;SDS011;11873;49.300;8.920;2024-01-30T02:07:57;9.70;;;8.17;;
23400;SDS011;11873;49.300;8.920;2024-01-30T02:12:58;9.60;;;7.20;;
23400;SDS011;11873;49.300;8.920;2024-01-30T02:17:58;8.63;;;7.77;;
23400;SDS011;11873;49.300;8.920;2024-01-30T02:22:58;8.77;;;7.67;;
23400;SDS011;11873;49.300;8.920;2024-01-30T02:27:58;8.87;;;7.93;;
23400;SDS011;11873;49.300;8.920;2024-01-30T02:32:59;8.37;;;7.57;;
23400;SDS011;11873;49.300;8.920;2024-01-30T02:37:59;9.70;;;7.93;;
23400;SDS011;11873;49.300;8.920;2024-01-30T02:42:59;8.50;;;7.50;;
23400;SDS011;11873;49.300;8.920;2024-01-30T02:48:00;7.83;;;7.03;;
23400;SDS011;11873;49.300;8.920;2024-01-30T02:53:00;14.10;;;8.30;;
23400;SDS011;11873;49.300;8.920;2024-01-30T02:58:00;8.53;;;7.63;;
23400;SDS011;11873;49.300;8.920;2024-01-30T03:03:00;11.23;;;7.73;;
23400;SDS011;11873;49.300;8.920;2024-01-30T03:08:00;7.97;;;7.20;;
23400;SDS011;11873;49.300;8.920;2024-01-30T03:13:00;11.07;;;8.30;;
23400;SDS011;11873;49.300;8.920;2024-01-30T03:18:01;7.87;;;7.07;;
23400;SDS011;11873;49.300;8.920;2024-01-30T03:23:01;9.83;;;8.00;;
23400;SDS011;11873;49.300;8.920;2024-01-30T03:28:02;8.43;;;7.43;;
23400;SDS011;11873;49.300;8.920;2024-01-30T03:33:02;9.83;;;7.67;;
23400;SDS011;11873;49.300;8.920;2024-01-30T03:38:02;9.50;;;6.90;;
23400;SDS011;11873;49.300;8.920;2024-01-30T03:43:02;7.73;;;6.93;;
23400;SDS011;11873;49.300;8.920;2024-01-30T03:48:03;6.83;;;6.13;;
23400;SDS011;11873;49.300;8.920;2024-01-30T03:53:03;8.13;;;6.90;;
23400;SDS011;11873;49.300;8.920;2024-01-30T03:58:03;8.40;;;6.97;;
23400;SDS011;11873;49.300;8.920;2024-01-30T04:03:03;10.37;;;6.97;;
23400;SDS011;11873;49.300;8.920;2024-01-30T04:08:04;8.80;;;6.47;;
23400;SDS011;11873;49.300;8.920;2024-01-30T04:13:04;6.73;;;6.13;;
23400;SDS011;11873;49.300;8.920;2024-01-30T04:18:04;7.07;;;6.03;;
23400;SDS011;11873;49.300;8.920;2024-01-30T04:23:04;7.43;;;6.67;;
23400;SDS011;11873;49.300;8.920;2024-01-30T04:28:05;6.43;;;5.80;;
23400;SDS011;11873;49.300;8.920;2024-01-30T04:33:05;7.30;;;6.30;;
23400;SDS011;11873;49.300;8.920;2024-01-30T04:38:05;8.47;;;6.53;;
23400;SDS011;11873;49.300;8.920;2024-01-30T04:43:05;7.60;;;6.00;;
23400;SDS011;11873;49.300;8.920;2024-01-30T04:48:05;11.47;;;7.90;;
23400;SDS011;11873;49.300;8.920;2024-01-30T04:53:06;7.60;;;6.90;;
23400;SDS011;11873;49.300;8.920;2024-01-30T04:58:06;7.93;;;7.13;;
23400;SDS011;11873;49.300;8.920;2024-01-30T05:03:06;7.87;;;7.00;;
23400;SDS011;11873;49.300;8.920;2024-01-30T05:08:06;7.27;;;6.57;;
23400;SDS011;11873;49.300;8.920;2024-01-30T05:13:06;7.53;;;6.10;;
23400;SDS011;11873;49.300;8.920;2024-01-30T05:18:07;6.90;;;6.20;;
23400;SDS011;11873;49.300;8.920;2024-01-30T05:23:07;7.50;;;6.40;;
23400;SDS011;11873;49.300;8.920;2024-01-30T05:28:07;7.63;;;6.53;;
23400;SDS011;11873;49.300;8.920;2024-01-30T05:33:07;6.33;;;5.60;;
23400;SDS011;11873;49.300;8.920;2024-01-30T05:38:07;6.40;;;5.23;;
23400;SDS011;11873;49.300;8.920;2024-01-30T05:43:07;6.53;;;5.47;;
23400;SDS011;11873;49.300;8.920;2024-01-30T05:48:08;6.53;;;5.50;;
23400;SDS011;11873;49.300;8.920;2024-01-30T05:53:08;6.60;;;5.50;;
23400;SDS011;11873;49.300;8.920;2024-01-30T05:58:08;6.60;;;5.90;;
23400;SDS011;11873;49.300;8.920;2024-01-30T06:03:08;5.90;;;5.30;;
23400;SDS011;11873;49.300;8.920;2024-01-30T06:08:08;7.90;;;5.85;;
23400;SDS011;11873;49.300;8.920;2024-01-30T06:13:09;7.40;;;6.70;;
23400;SDS011;11873;49.300;8.920;2024-01-30T06:18:09;7.87;;;7.17;;
23400;SDS011;11873;49.300;8.920;2024-01-30T06:23:09;9.80;;;6.80;;
23400;SDS011;11873;49.300;8.920;2024-01-30T06:28:09;8.13;;;7.03;;
23400;SDS011;11873;49.300;8.920;2024-01-30T06:33:11;10.20;;;9.20;;
23400;SDS011;11873;49.300;8.920;2024-01-30T06:38:11;8.43;;;7.33;;
23400;SDS011;11873;49.300;8.920;2024-01-30T06:43:11;7.83;;;6.33;;
23400;SDS011;11873;49.300;8.920;2024-01-30T06:48:12;6.73;;;6.13;;
23400;SDS011;11873;49.300;8.920;2024-01-30T06:53:12;9.10;;;7.03;;
23400;SDS011;11873;49.300;8.920;2024-01-30T06:58:12;9.53;;;8.60;;
23400;SDS011;11873;49.300;8.920;2024-01-30T07:03:12;9.70;;;8.03;;
23400;SDS011;11873;49.300;8.920;2024-01-30T07:08:12;9.60;;;7.80;;
23400;SDS011;11873;49.300;8.920;2024-01-30T07:13:13;7.77;;;6.20;;
23400;SDS011;11873;49.300;8.920;2024-01-30T07:18:13;6.70;;;5.80;;
23400;SDS011;11873;49.300;8.920;2024-01-30T07:23:13;8.47;;;7.60;;
23400;SDS011;11873;49.300;8.920;2024-01-30T07:28:14;8.47;;;7.67;;
23400;SDS011;11873;49.300;8.920;2024-01-30T07:33:14;11.70;;;7.73;;
23400;SDS011;11873;49.300;8.920;2024-01-30T07:38:14;12.17;;;7.40;;
23400;SDS011;11873;49.300;8.920;2024-01-30T07:43:14;8.73;;;7.83;;
23400;SDS011;11873;49.300;8.920;2024-01-30T07:48:14;9.33;;;8.33;;
23400;SDS011;11873;49.300;8.920;2024-01-30T07:53:15;9.80;;;8.80;;
23400;SDS011;11873;49.300;8.920;2024-01-30T07:58:15;9.00;;;7.77;;
23400;SDS011;11873;49.300;8.920;2024-01-30T08:03:15;8.53;;;7.63;;
23400;SDS011;11873;49.300;8.920;2024-01-30T08:08:15;9.23;;;8.27;;
23400;SDS011;11873;49.300;8.920;2024-01-30T08:13:15;11.00;;;9.13;;
23400;SDS011;11873;49.300;8.920;2024-01-30T08:18:15;8.83;;;7.90;;
23400;SDS011;11873;49.300;8.920;2024-01-30T08:23:16;9.47;;;7.70;;
23400;SDS011;11873;49.300;8.920;2024-01-30T08:28:16;8.67;;;7.43;;
23400;SDS011;11873;49.300;8.920;2024-01-30T08:33:16;8.67;;;7.70;;
23400;SDS011;11873;49.300;8.920;2024-01-30T08:38:16;10.80;;;8.87;;
23400;SDS011;11873;49.300;8.920;2024-01-30T08:43:16;8.80;;;8.00;;
23400;SDS011;11873;49.300;8.920;2024-01-30T08:48:16;9.90;;;7.27;;
23400;SDS011;11873;49.300;8.920;2024-01-30T08:53:17;8.20;;;7.40;;
23400;SDS011;11873;49.300;8.920;2024-01-30T08:58:17;7.80;;;7.00;;
23400;SDS011;11873;49.300;8.920;2024-01-30T09:03:17;7.93;;;7.20;;
23400;SDS011;11873;49.300;8.920;2024-01-30T09:08:17;9.13;;;7.33;;
23400;SDS011;11873;49.300;8.920;2024-01-30T09:13:17;9.67;;;8.67;;
23400;SDS011;11873;49.300;8.920;2024-01-30T09:18:18;11.33;;;8.90;;
23400;SDS011;11873;49.300;8.920;2024-01-30T09:23:18;10.77;;;8.40;;
23400;SDS011;11873;49.300;8.920;2024-01-30T09:28:18;9.70;;;8.23;;
23400;SDS011;11873;49.300;8.920;2024-01-30T09:33:18;8.70;;;7.90;;
23400;SDS011;11873;49.300;8.920;2024-01-30T09:38:19;11.83;;;9.50;;
23400;SDS011;11873;49.300;8.920;2024-01-30T09:43:19;10.20;;;8.30;;
23400;SDS011;11873;49.300;8.920;2024-01-30T09:48:21;10.00;;;8.10;;
23400;SDS011;11873;49.300;8.920;2024-01-30T09:53:22;9.47;;;8.50;;
23400;SDS011;11873;49.300;8.920;2024-01-30T09:58:22;10.07;;;9.00;;
23400;SDS011;11873;49.300;8.920;2024-01-30T10:03:22;10.50;;;9.50;;
23400;SDS011;11873;49.300;8.920;2024-01-30T10:08:22;10.17;;;9.00;;
23400;SDS011;11873;49.300;8.920;2024-01-30T10:13:23;9.83;;;7.93;;
23400;SDS011;11873;49.300;8.920;2024-01-30T10:18:24;10.63;;;9.53;;
23400;SDS011;11873;49.300;8.920;2024-01-30T10:23:24;10.70;;;9.20;;
23400;SDS011;11873;49.300;8.920;2024-01-30T10:28:26;8.20;;;7.47;;
23400;SDS011;11873;49.300;8.920;2024-01-30T10:33:27;8.27;;;7.37;;
23400;SDS011;11873;49.300;8.920;2024-01-30T10:38:28;12.17;;;8.70;;
23400;SDS011;11873;49.300;8.920;2024-01-30T10:43:35;10.20;;;9.00;;
23400;SDS011;11873;49.300;8.920;2024-01-30T10:48:36;13.03;;;8.87;;
23400;SDS011;11873;49.300;8.920;2024-01-30T10:53:37;10.77;;;9.17;;
23400;SDS011;11873;49.300;8.920;2024-01-30T10:58:37;11.63;;;9.23;;
23400;SDS011;11873;49.300;8.920;2024-01-30T11:03:37;11.60;;;9.73;;
23400;SDS011;11873;49.300;8.920;2024-01-30T11:08:37;10.00;;;9.03;;
23400;SDS011;11873;49.300;8.920;2024-01-30T11:13:38;10.07;;;8.93;;
23400;SDS011;11873;49.300;8.920;2024-01-30T11:18:38;8.90;;;8.00;;
23400;SDS011;11873;49.300;8.920;2024-01-30T11:23:38;9.53;;;7.63;;
23400;SDS011;11873;49.300;8.920;2024-01-30T11:28:38;9.97;;;8.97;;
23400;SDS011;11873;49.300;8.920;2024-01-30T11:33:38;13.17;;;9.30;;
23400;SDS011;11873;49.300;8.920;2024-01-30T11:38:38;9.53;;;7.93;;
23400;SDS011;11873;49.300;8.920;2024-01-30T11:43:39;9.40;;;8.27;;
23400;SDS011;11873;49.300;8.920;2024-01-30T11:48:39;9.77;;;8.40;;
23400;SDS011;11873;49.300;8.920;2024-01-30T11:53:39;10.90;;;8.87;;
23400;SDS011;11873;49.300;8.920;2024-01-30T11:58:42;8.87;;;7.97;;
23400;SDS011;11873;49.300;8.920;2024-01-30T12:03:42;8.30;;;7.43;;
23400;SDS011;11873;49.300;8.920;2024-01-30T12:08:42;8.87;;;7.97;;
23400;SDS011;11873;49.300;8.920;2024-01-30T12:13:42;7.97;;;7.17;;
23400;SDS011;11873;49.300;8.920;2024-01-30T12:18:43;8.80;;;7.10;;
23400;SDS011;11873;49.300;8.920;2024-01-30T12:23:43;10.83;;;7.33;;
23400;SDS011;11873;49.300;8.920;2024-01-30T12:28:49;6.53;;;5.77;;
23400;SDS011;11873;49.300;8.920;2024-01-30T12:33:50;7.70;;;6.30;;
23400;SDS011;11873;49.300;8.920;2024-01-30T12:38:50;8.07;;;6.27;;
23400;SDS011;11873;49.300;8.920;2024-01-30T12:43:50;8.03;;;6.10;;
23400;SDS011;11873;49.300;8.920;2024-01-30T12:48:50;8.73;;;7.10;;
23400;SDS011;11873;49.300;8.920;2024-01-30T12:53:50;7.47;;;6.63;;
23400;SDS011;11873;49.300;8.920;2024-01-30T12:58:51;6.97;;;6.30;;
23400;SDS011;11873;49.300;8.920;2024-01-30T13:03:51;6.70;;;6.07;;
23400;SDS011;11873;49.300;8.920;2024-01-30T13:08:52;5.23;;;4.83;;
23400;SDS011;11873;49.300;8.920;2024-01-30T13:13:52;8.10;;;6.50;;
23400;SDS011;11873;49.300;8.920;2024-01-30T13:18:52;7.00;;;6.40;;
23400;SDS011;11873;49.300;8.920;2024-01-30T13:23:52;8.40;;;5.90;;
23400;SDS011;11873;49.300;8.920;2024-01-30T13:28:53;10.07;;;7.23;;
23400;SDS011;11873;49.300;8.920;2024-01-30T13:33:53;6.03;;;5.43;;
23400;SDS011;11873;49.300;8.920;2024-01-30T13:38:53;6.33;;;5.73;;
23400;SDS011;11873;49.300;8.920;2024-01-30T13:43:54;8.10;;;6.13;;
23400;SDS011;11873;49.300;8.920;2024-01-30T13:48:54;7.83;;;6.07;;
23400;SDS011;11873;49.300;8.920;2024-01-30T13:53:54;7.20;;;6.50;;
23400;SDS011;11873;49.300;8.920;2024-01-30T13:58:54;7.73;;;6.93;;
23400;SDS011;11873;49.300;8.920;2024-01-30T14:03:54;9.23;;;7.00;;
23400;SDS011;11873;49.300;8.920;2024-01-30T14:08:54;7.37;;;6.20;;
23400;SDS011;11873;49.300;8.920;2024-01-30T14:13:55;7.80;;;5.63;;
23400;SDS011;11873;49.300;8.920;2024-01-30T14:18:55;6.00;;;5.40;;
23400;SDS011;11873;49.300;8.920;2024-01-30T14:23:55;5.73;;;5.10;;
23400;SDS011;11873;49.300;8.920;2024-01-30T14:28:55;8.33;;;6.77;;
23400;SDS011;11873;49.300;8.920;2024-01-30T14:33:55;7.63;;;5.90;;
23400;SDS011;11873;49.300;8.920;2024-01-30T14:38:55;7.10;;;5.47;;
23400;SDS011;11873;49.300;8.920;2024-01-30T14:43:56;6.53;;;5.63;;
23400;SDS011;11873;49.300;8.920;2024-01-30T14:48:56;7.63;;;6.73;;
23400;SDS011;11873;49.300;8.920;2024-01-30T14:53:56;7.87;;;6.67;;
23400;SDS011;11873;49.300;8.920;2024-01-30T14:58:56;8.10;;;6.30;;
23400;SDS011;11873;49.300;8.920;2024-01-30T15:03:57;6.93;;;5.67;;
23400;SDS011;11873;49.300;8.920;2024-01-30T15:08:57;9.00;;;7.43;;
23400;SDS011;11873;49.300;8.920;2024-01-30T15:13:57;7.10;;;6.40;;
23400;SDS011;11873;49.300;8.920;2024-01-30T15:18:57;7.57;;;6.23;;
23400;SDS011;11873;49.300;8.920;2024-01-30T15:23:57;7.77;;;6.73;;
23400;SDS011;11873;49.300;8.920;2024-01-30T15:28:57;9.33;;;8.40;;
23400;SDS011;11873;49.300;8.920;2024-01-30T15:33:58;7.78;;;6.97;;
23400;SDS011;11873;49.300;8.920;2024-01-30T15:38:58;7.80;;;7.00;;
23400;SDS011;11873;49.300;8.920;2024-01-30T15:43:59;9.47;;;7.93;;
23400;SDS011;11873;49.300;8.920;2024-01-30T15:49:00;12.30;;;8.27;;
23400;SDS011;11873;49.300;8.920;2024-01-30T15:54:00;8.77;;;7.30;;
23400;SDS011;11873;49.300;8.920;2024-01-30T15:59:00;8.80;;;7.63;;
23400;SDS011;11873;49.300;8.920;2024-01-30T16:04:00;15.30;;;13.43;;
23400;SDS011;11873;49.300;8.920;2024-01-30T16:09:01;10.27;;;8.33;;
23400;SDS011;11873;49.300;8.920;2024-01-30T16:14:01;12.40;;;8.97;;
23400;SDS011;11873;49.300;8.920;2024-01-30T16:19:01;16.03;;;11.40;;
23400;SDS011;11873;49.300;8.920;2024-01-30T16:24:01;10.23;;;7.93;;
23400;SDS011;11873;49.300;8.920;2024-01-30T16:29:01;9.93;;;7.50;;
23400;SDS011;11873;49.300;8.920;2024-01-30T16:34:01;7.63;;;6.83;;
23400;SDS011;11873;49.300;8.920;2024-01-30T16:39:02;7.80;;;6.50;;
23400;SDS011;11873;49.300;8.920;2024-01-30T16:44:02;8.27;;;7.43;;
23400;SDS011;11873;49.300;8.920;2024-01-30T16:49:02;14.70;;;10.97;;
23400;SDS011;11873;49.300;8.920;2024-01-30T16:54:02;47.53;;;29.40;;
23400;SDS011;11873;49.300;8.920;2024-01-30T16:59:03;40.13;;;26.43;;
23400;SDS011;11873;49.300;8.920;2024-01-30T17:04:03;18.53;;;13.30;;
23400;SDS011;11873;49.300;8.920;2024-01-30T17:09:04;12.47;;;9.47;;
23400;SDS011;11873;49.300;8.920;2024-01-30T17:14:04;12.47;;;9.23;;
23400;SDS011;11873;49.300;8.920;2024-01-30T17:19:04;11.63;;;8.43;;
23400;SDS011;11873;49.300;8.920;2024-01-30T17:24:05;12.17;;;9.10;;
23400;SDS011;11873;49.300;8.920;2024-01-30T17:29:05;8.53;;;7.43;;
23400;SDS011;11873;49.300;8.920;2024-01-30T17:34:05;8.77;;;6.73;;
23400;SDS011;11873;49.300;8.920;2024-01-30T17:39:05;8.63;;;7.00;;
23400;SDS011;11873;49.300;8.920;2024-01-30T17:44:05;10.30;;;8.17;;
23400;SDS011;11873;49.300;8.920;2024-01-30T17:49:05;10.20;;;7.80;;
23400;SDS011;11873;49.300;8.920;2024-01-30T17:54:06;9.37;;;7.03;;
23400;SDS011;11873;49.300;8.920;2024-01-30T17:59:06;9.73;;;7.60;;
23400;SDS011;11873;49.300;8.920;2024-01-30T18:04:06;11.17;;;8.00;;
23400;SDS011;11873;49.300;8.920;2024-01-30T18:09:06;7.00;;;6.30;;
23400;SDS011;11873;49.300;8.920;2024-01-30T18:14:06;7.83;;;6.77;;
23400;SDS011;11873;49.300;8.920;2024-01-30T18:19:07;8.23;;;7.00;;
23400;SDS011;11873;49.300;8.920;2024-01-30T18:24:07;10.57;;;7.43;;
23400;SDS011;11873;49.300;8.920;2024-01-30T18:29:07;11.27;;;9.07;;
23400;SDS011;11873;49.300;8.920;2024-01-30T18:34:07;12.53;;;9.47;;
23400;SDS011;11873;49.300;8.920;2024-01-30T18:39:08;10.60;;;7.60;;
23400;SDS011;11873;49.300;8.920;2024-01-30T18:44:08;10.52;;;8.45;;
23400;SDS011;11873;49.300;8.920;2024-01-30T18:49:08;10.57;;;8.80;;
23400;SDS011;11873;49.300;8.920;2024-01-30T18:54:08;22.37;;;15.27;;
23400;SDS011;11873;49.300;8.920;2024-01-30T18:59:08;17.47;;;12.80;;
23400;SDS011;11873;49.300;8.920;2024-01-30T19:04:09;25.17;;;17.87;;
23400;SDS011;11873;49.300;8.920;2024-01-30T19:09:09;19.03;;;14.97;;
23400;SDS011;11873;49.300;8.920;2024-01-30T19:14:09;25.53;;;19.93;;
23400;SDS011;11873;49.300;8.920;2024-01-30T19:19:09;23.57;;;18.40;;
23400;SDS011;11873;49.300;8.920;2024-01-30T19:24:09;20.67;;;17.20;;
23400;SDS011;11873;49.300;8.920;2024-01-30T19:29:09;32.53;;;23.23;;
23400;SDS011;11873;49.300;8.920;2024-01-30T19:34:10;18.83;;;14.80;;
23400;SDS011;11873;49.300;8.920;2024-01-30T19:39:10;10.83;;;8.80;;
23400;SDS011;11873;49.300;8.920;2024-01-30T19:44:10;8.20;;;7.10;;
23400;SDS011;11873;49.300;8.920;2024-01-30T19:49:11;8.80;;;7.93;;
23400;SDS011;11873;49.300;8.920;2024-01-30T19:54:12;16.27;;;11.57;;
23400;SDS011;11873;49.300;8.920;2024-01-30T19:59:12;13.60;;;12.23;;
23400;SDS011;11873;49.300;8.920;2024-01-30T20:04:12;20.37;;;15.83;;
23400;SDS011;11873;49.300;8.920;2024-01-30T20:09:12;15.47;;;11.97;;
23400;SDS011;11873;49.300;8.920;2024-01-30T20:14:13;12.40;;;10.77;;
23400;SDS011;11873;49.300;8.920;2024-01-30T20:19:13;17.53;;;13.20;;
23400;SDS011;11873;49.300;8.920;2024-01-30T20:24:13;18.87;;;15.60;;
23400;SDS011;11873;49.300;8.920;2024-01-30T20:29:13;20.27;;;13.17;;
23400;SDS011;11873;49.300;8.920;2024-01-30T20:34:13;10.33;;;8.47;;
23400;SDS011;11873;49.300;8.920;2024-01-30T20:39:13;10.90;;;7.23;;
23400;SDS011;11873;49.300;8.920;2024-01-30T20:44:14;10.47;;;8.07;;
23400;SDS011;11873;49.300;8.920;2024-01-30T20:49:14;9.33;;;8.10;;
23400;SDS011;11873;49.300;8.920;2024-01-30T20:54:14;9.97;;;8.63;;
23400;SDS011;11873;49.300;8.920;2024-01-30T20:59:15;11.57;;;8.10;;
23400;SDS011;11873;49.300;8.920;2024-01-30T21:04:15;9.37;;;7.77;;
23400;SDS011;11873;49.300;8.920;2024-01-30T21:09:15;8.40;;;7.47;;
23400;SDS011;11873;49.300;8.920;2024-01-30T21:14:15;9.43;;;8.40;;
23400;SDS011;11873;49.300;8.920;2024-01-30T21:19:16;8.47;;;7.63;;
23400;SDS011;11873;49.300;8.920;2024-01-30T21:24:16;8.57;;;7.63;;
23400;SDS011;11873;49.300;8.920;2024-01-30T21:29:16;8.90;;;8.00;;
23400;SDS011;11873;49.300;8.920;2024-01-30T21:34:16;8.80;;;7.90;;
23400;SDS011;11873;49.300;8.920;2024-01-30T21:39:17;9.80;;;8.80;;
23400;SDS011;11873;49.300;8.920;2024-01-30T21:44:17;13.57;;;8.37;;
23400;SDS011;11873;49.300;8.920;2024-01-30T21:49:17;8.57;;;7.77;;
23400;SDS011;11873;49.300;8.920;2024-01-30T21:54:17;16.77;;;13.40;;
23400;SDS011;11873;49.300;8.920;2024-01-30T21:59:18;15.33;;;12.70;;
23400;SDS011;11873;49.300;8.920;2024-01-30T22:04:18;15.77;;;14.07;;
23400;SDS011;11873;49.300;8.920;2024-01-30T22:09:18;20.40;;;15.23;;
23400;SDS011;11873;49.300;8.920;2024-01-30T22:14:18;20.20;;;16.00;;
23400;SDS011;11873;49.300;8.920;2024-01-30T22:19:18;20.47;;;17.20;;
23400;SDS011;11873;49.300;8.920;2024-01-30T22:24:19;28.40;;;18.73;;
23400;SDS011;11873;49.300;8.920;2024-01-30T22:29:19;21.93;;;15.17;;
23400;SDS011;11873;49.300;8.920;2024-01-30T22:34:19;19.73;;;14.90;;
23400;SDS011;11873;49.300;8.920;2024-01-30T22:39:19;21.40;;;14.53;;
23400;SDS011;11873;49.300;8.920;2024-01-30T22:44:19;27.03;;;15.73;;
23400;SDS011;11873;49.300;8.920;2024-01-30T22:49:19;20.37;;;15.80;;
23400;SDS011;11873;49.300;8.920;2024-01-30T22:54:20;17.13;;;12.67;;
23400;SDS011;11873;49.300;8.920;2024-01-30T22:59:22;13.23;;;9.17;;
23400;SDS011;11873;49.300;8.920;2024-01-30T23:04:22;13.20;;;9.50;;
23400;SDS011;11873;49.300;8.920;2024-01-30T23:09:22;12.40;;;9.10;;
23400;SDS011;11873;49.300;8.920;2024-01-30T23:14:22;13.73;;;10.07;;
23400;SDS011;11873;49.300;8.920;2024-01-30T23:19:23;17.77;;;12.57;;
23400;SDS011;11873;49.300;8.920;2024-01-30T23:24:23;15.00;;;11.63;;
23400;SDS011;11873;49.300;8.920;2024-01-30T23:29:23;15.10;;;11.63;;
23400;SDS011;11873;49.300;8.920;2024-01-30T23:34:23;16.87;;;11.47;;
23400;SDS011;11873;49.300;8.920;2024-01-30T23:39:23;13.80;;;10.23;;
23400;SDS011;11873;49.300;8.920;2024-01-30T23:44:24;13.77;;;10.30;;
23400;SDS011;11873;49.300;8.920;2024-01-30T23:49:24;14.03;;;9.90;;
23400;SDS011;11873;49.300;8.920;2024-01-30T23:54:24;9.60;;;8.70;;
23400;SDS011;11873;49.300;8.920;2024-01-30T23:59:24;11.80;;;9.40;;
